createdAt,value
2018-12-14T00:02:11.664Z,0.08
2018-12-14T00:04:44.258Z,0.10
2018-12-14T00:07:16.230Z,0.10
2018-12-14T00:09:46.833Z,0.15
2018-12-14T00:12:16.936Z,0.16
2018-12-14T00:14:47.249Z,0.21
2018-12-14T00:17:18.096Z,0.28
2018-12-14T00:19:48.147Z,0.23
2018-12-14T00:22:18.358Z,0.14
2018-12-14T00:24:48.410Z,0.18
2018-12-14T00:27:18.908Z,0.19
2018-12-14T00:32:32.865Z,0.18
2018-12-14T00:35:03.253Z,0.14
2018-12-14T00:37:34.472Z,0.02
2018-12-14T00:40:05.892Z,-0.03
2018-12-14T00:42:36.169Z,-0.13
2018-12-14T00:45:06.456Z,-0.14
2018-12-14T00:47:36.561Z,-0.08
2018-12-14T00:50:07.852Z,-0.06
2018-12-14T00:52:38.622Z,-0.07
2018-12-14T00:55:08.907Z,-0.13
2018-12-14T00:57:39.327Z,-0.08
2018-12-14T01:00:10.700Z,-0.17
2018-12-14T01:05:18.439Z,-0.16
2018-12-14T01:07:48.448Z,-0.12
2018-12-14T01:10:18.558Z,-0.13
2018-12-14T01:12:48.925Z,-0.13
2018-12-14T01:15:18.988Z,-0.07
2018-12-14T01:17:49.116Z,-0.08
2018-12-14T01:20:19.960Z,-0.13
2018-12-14T01:22:50.150Z,-0.03
2018-12-14T01:25:20.505Z,-0.01
2018-12-14T01:27:51.061Z,0.06
2018-12-14T01:30:21.115Z,0.11
2018-12-14T01:32:53.021Z,0.09
2018-12-14T01:35:23.256Z,0.11
2018-12-14T01:37:53.840Z,0.07
2018-12-14T01:40:24.058Z,0.08
2018-12-14T01:42:54.482Z,0.05
2018-12-14T01:45:24.960Z,0.08
2018-12-14T01:47:55.804Z,0.03
2018-12-14T01:50:26.035Z,0.06
2018-12-14T01:52:56.225Z,0.07
2018-12-14T01:55:26.486Z,0.09
2018-12-14T01:57:56.680Z,0.14
2018-12-14T02:00:27.126Z,0.15
2018-12-14T02:02:57.292Z,0.13
2018-12-14T02:05:27.444Z,0.12
2018-12-14T02:07:57.811Z,0.09
2018-12-14T02:10:28.010Z,0.10
2018-12-14T02:12:58.807Z,0.12
2018-12-14T02:15:29.764Z,0.08
2018-12-14T02:17:59.993Z,0.06
2018-12-14T02:20:30.878Z,0.05
2018-12-14T02:23:01.252Z,0.03
2018-12-14T02:25:31.623Z,0.00
2018-12-14T02:28:02.205Z,-0.04
2018-12-14T02:30:41.578Z,-0.04
2018-12-14T02:33:12.890Z,-0.04
2018-12-14T02:35:43.234Z,-0.02
2018-12-14T02:38:13.424Z,0.01
2018-12-14T02:40:44.170Z,-0.01
2018-12-14T02:43:14.434Z,-0.03
2018-12-14T02:45:45.398Z,-0.03
2018-12-14T02:48:15.907Z,-0.07
2018-12-14T02:50:46.232Z,-0.02
2018-12-14T02:53:16.289Z,0.02
2018-12-14T02:55:47.533Z,-0.05
2018-12-14T02:58:17.552Z,-0.02
2018-12-14T03:00:48.002Z,-0.04
2018-12-14T03:03:18.379Z,-0.14
2018-12-14T03:05:49.332Z,-0.18
2018-12-14T03:08:20.273Z,-0.17
2018-12-14T03:10:51.001Z,-0.12
2018-12-14T03:13:21.397Z,-0.15
2018-12-14T03:15:51.615Z,-0.12
2018-12-14T03:18:21.811Z,-0.08
2018-12-14T03:20:51.887Z,-0.17
2018-12-14T03:23:22.418Z,-0.17
2018-12-14T03:25:53.816Z,-0.18
2018-12-14T03:28:23.883Z,-0.18
2018-12-14T03:30:54.129Z,-0.17
2018-12-14T03:33:24.866Z,-0.18
2018-12-14T03:35:55.033Z,-0.16
2018-12-14T03:38:25.412Z,-0.17
2018-12-14T03:40:55.635Z,-0.16
2018-12-14T03:43:25.931Z,-0.15
2018-12-14T03:45:56.521Z,-0.10
2018-12-14T03:48:27.080Z,-0.13
2018-12-14T03:50:58.065Z,-0.26
2018-12-14T03:53:28.420Z,-0.33
2018-12-14T03:55:58.848Z,-0.36
2018-12-14T03:58:29.841Z,-0.30
2018-12-14T04:01:00.165Z,-0.23
2018-12-14T04:03:30.325Z,-0.29
2018-12-14T04:06:00.997Z,-0.29
2018-12-14T04:08:31.618Z,-0.36
2018-12-14T04:11:01.793Z,-0.36
2018-12-14T04:13:32.040Z,-0.41
2018-12-14T04:16:02.468Z,-0.43
2018-12-14T04:18:33.128Z,-0.37
2018-12-14T04:21:04.960Z,-0.46
2018-12-14T04:23:35.891Z,-0.44
2018-12-14T04:26:06.166Z,-0.45
2018-12-14T04:28:37.703Z,-0.42
2018-12-14T04:31:08.336Z,-0.44
2018-12-14T04:33:39.356Z,-0.45
2018-12-14T04:36:09.485Z,-0.49
2018-12-14T04:38:41.824Z,-0.45
2018-12-14T04:41:12.204Z,-0.44
2018-12-14T04:43:42.610Z,-0.51
2018-12-14T04:46:13.022Z,-0.46
2018-12-14T04:48:43.176Z,-0.43
2018-12-14T04:51:17.683Z,-0.45
2018-12-14T04:53:48.108Z,-0.49
2018-12-14T04:56:18.224Z,-0.51
2018-12-14T04:58:48.494Z,-0.55
2018-12-14T05:01:18.480Z,-0.62
2018-12-14T05:03:48.470Z,-0.62
2018-12-14T05:06:18.713Z,-0.60
2018-12-14T05:08:48.709Z,-0.65
2018-12-14T05:11:19.885Z,-0.69
2018-12-14T05:13:50.312Z,-0.69
2018-12-14T05:16:20.650Z,-0.74
2018-12-14T05:18:51.533Z,-0.70
2018-12-14T05:21:21.828Z,-0.68
2018-12-14T05:23:51.861Z,-0.70
2018-12-14T05:28:59.211Z,-0.79
2018-12-14T05:31:29.300Z,-0.81
2018-12-14T05:33:59.974Z,-0.78
2018-12-14T05:36:30.706Z,-0.77
2018-12-14T05:39:00.921Z,-0.80
2018-12-14T05:44:13.913Z,-0.86
2018-12-14T05:46:44.139Z,-0.81
2018-12-14T05:49:14.632Z,-0.89
2018-12-14T05:51:44.898Z,-0.81
2018-12-14T05:54:15.273Z,-0.82
2018-12-14T05:56:45.764Z,-0.87
2018-12-14T05:59:15.760Z,-0.80
2018-12-14T06:01:50.874Z,-0.80
2018-12-14T06:04:22.245Z,-0.85
2018-12-14T06:06:57.391Z,-0.84
2018-12-14T06:09:28.223Z,-0.92
2018-12-14T06:14:42.600Z,-1.06
2018-12-14T06:17:13.476Z,-0.99
2018-12-14T06:19:44.035Z,-0.95
2018-12-14T06:22:23.131Z,-0.95
2018-12-14T06:24:55.011Z,-0.97
2018-12-14T06:27:26.733Z,-1.01
2018-12-14T06:29:58.436Z,-1.00
2018-12-14T06:32:29.768Z,-1.00
2018-12-14T06:35:03.057Z,-0.95
2018-12-14T06:37:33.108Z,-0.95
2018-12-14T06:40:05.434Z,-0.99
2018-12-14T06:42:35.763Z,-1.01
2018-12-14T06:45:07.035Z,-1.00
2018-12-14T06:47:37.340Z,-1.00
2018-12-14T06:50:07.526Z,-1.01
2018-12-14T06:52:38.526Z,-1.00
2018-12-14T06:55:08.572Z,-0.95
2018-12-14T06:57:38.804Z,-0.98
2018-12-14T07:00:09.231Z,-1.03
2018-12-14T07:02:39.283Z,-1.04
2018-12-14T07:05:09.553Z,-1.02
2018-12-14T07:07:39.546Z,-0.98
2018-12-14T07:10:09.880Z,-0.99
2018-12-14T07:12:40.771Z,-1.03
2018-12-14T07:15:11.141Z,-0.97
2018-12-14T07:20:24.913Z,-0.95
2018-12-14T07:22:55.041Z,-1.01
2018-12-14T07:25:25.174Z,-1.10
2018-12-14T07:27:55.289Z,-1.07
2018-12-14T07:30:25.460Z,-1.06
2018-12-14T07:32:55.998Z,-1.08
2018-12-14T07:35:26.411Z,-1.17
2018-12-14T07:37:56.567Z,-1.11
2018-12-14T07:40:27.150Z,-1.10
2018-12-14T07:43:00.254Z,-1.21
2018-12-14T07:45:31.458Z,-1.14
2018-12-14T07:48:01.617Z,-1.19
2018-12-14T07:50:31.778Z,-1.28
2018-12-14T07:53:01.918Z,-1.30
2018-12-14T07:55:31.971Z,-1.30
2018-12-14T07:58:01.936Z,-1.26
2018-12-14T08:00:32.299Z,-1.16
2018-12-14T08:03:02.280Z,-1.15
2018-12-14T08:05:32.397Z,-1.16
2018-12-14T08:08:02.599Z,-1.33
2018-12-14T08:10:32.736Z,-1.18
2018-12-14T08:13:03.191Z,-1.08
2018-12-14T08:15:33.442Z,-1.18
2018-12-14T08:18:03.676Z,-1.16
2018-12-14T08:23:23.027Z,-1.11
2018-12-14T08:25:53.005Z,-1.07
2018-12-14T08:28:23.613Z,-1.05
2018-12-14T08:30:54.299Z,-1.03
2018-12-14T08:33:24.544Z,-1.01
2018-12-14T08:35:54.809Z,-1.09
2018-12-14T08:38:25.814Z,-1.04
2018-12-14T08:40:56.076Z,-1.01
2018-12-14T08:43:26.565Z,-0.98
2018-12-14T08:45:57.364Z,-0.96
2018-12-14T08:48:27.919Z,-0.96
2018-12-14T08:50:58.050Z,-1.00
2018-12-14T08:53:28.496Z,-0.93
2018-12-14T08:55:58.647Z,-0.96
2018-12-14T08:58:28.978Z,-0.95
2018-12-14T09:00:59.116Z,-0.93
2018-12-14T09:03:29.728Z,-0.90
2018-12-14T09:06:00.706Z,-0.89
2018-12-14T09:08:30.885Z,-0.88
2018-12-14T09:11:01.094Z,-0.85
2018-12-14T09:13:31.345Z,-0.85
2018-12-14T09:16:02.031Z,-0.91
2018-12-14T09:18:32.189Z,-0.92
2018-12-14T09:21:02.564Z,-0.94
2018-12-14T09:23:32.717Z,-0.98
2018-12-14T09:26:02.914Z,-0.96
2018-12-14T09:28:34.285Z,-0.99
2018-12-14T09:31:04.404Z,-0.98
2018-12-14T09:33:34.803Z,-0.98
2018-12-14T09:36:05.799Z,-1.00
2018-12-14T09:38:35.846Z,-0.93
2018-12-14T09:41:06.415Z,-0.97
2018-12-14T09:43:36.391Z,-0.90
2018-12-14T09:46:06.500Z,-1.06
2018-12-14T09:48:37.076Z,-1.09
2018-12-14T09:51:12.313Z,-1.18
2018-12-14T09:53:40.517Z,-1.03
2018-12-14T09:56:10.743Z,-1.07
2018-12-14T09:58:41.638Z,-1.01
2018-12-14T10:01:11.742Z,-1.01
2018-12-14T10:03:42.599Z,-0.98
2018-12-14T10:06:15.841Z,-0.96
2018-12-14T10:08:45.227Z,-1.01
2018-12-14T10:11:15.593Z,-1.03
2018-12-14T10:13:45.845Z,-1.00
2018-12-14T10:16:16.631Z,-1.02
2018-12-14T10:18:47.192Z,-1.01
2018-12-14T10:21:17.352Z,-0.97
2018-12-14T10:23:47.294Z,-0.96
2018-12-14T10:26:17.526Z,-0.94
2018-12-14T10:28:48.093Z,-0.93
2018-12-14T10:31:18.339Z,-0.91
2018-12-14T10:33:48.940Z,-0.94
2018-12-14T10:36:19.358Z,-0.94
2018-12-14T10:38:49.929Z,-0.93
2018-12-14T10:41:20.928Z,-0.93
2018-12-14T10:43:51.843Z,-0.97
2018-12-14T10:46:21.945Z,-0.95
2018-12-14T10:48:52.096Z,-1.00
2018-12-14T10:51:23.220Z,-0.98
2018-12-14T10:53:57.440Z,-1.00
2018-12-14T10:56:27.620Z,-1.01
2018-12-14T10:58:58.115Z,-0.97
2018-12-14T11:01:33.661Z,-0.97
2018-12-14T11:04:04.581Z,-1.01
2018-12-14T11:06:34.606Z,-0.96
2018-12-14T11:09:06.784Z,-1.04
2018-12-14T11:11:37.964Z,-1.03
2018-12-14T11:14:13.773Z,-1.02
2018-12-14T11:16:40.762Z,-0.99
2018-12-14T11:19:11.081Z,-0.96
2018-12-14T11:21:41.551Z,-0.93
2018-12-14T11:24:11.781Z,-1.05
2018-12-14T11:26:42.049Z,-1.02
2018-12-14T11:29:12.248Z,-0.98
2018-12-14T11:31:42.856Z,-0.96
2018-12-14T11:34:13.359Z,-0.90
2018-12-14T11:36:43.749Z,-0.92
2018-12-14T11:39:14.158Z,-0.89
2018-12-14T11:41:44.525Z,-0.82
2018-12-14T11:44:20.655Z,-0.82
2018-12-14T11:46:47.554Z,-0.80
2018-12-14T11:49:17.672Z,-0.76
2018-12-14T11:51:48.798Z,-0.74
2018-12-14T11:54:18.914Z,-0.74
2018-12-14T11:56:49.325Z,-0.71
2018-12-14T11:59:19.331Z,-0.69
2018-12-14T12:04:26.561Z,-0.66
2018-12-14T12:06:56.534Z,-0.69
2018-12-14T12:09:26.501Z,-0.70
2018-12-14T12:11:56.867Z,-0.68
2018-12-14T12:14:27.518Z,-0.68
2018-12-14T12:16:57.574Z,-0.70
2018-12-14T12:19:28.030Z,-0.66
2018-12-14T12:21:58.148Z,-0.66
2018-12-14T12:24:29.105Z,-0.72
2018-12-14T12:26:59.649Z,-0.73
2018-12-14T12:29:30.131Z,-0.70
2018-12-14T12:32:00.124Z,-0.71
2018-12-14T12:34:30.254Z,-0.71
2018-12-14T12:37:00.503Z,-0.78
2018-12-14T12:39:31.393Z,-0.76
2018-12-14T12:42:02.199Z,-0.86
2018-12-14T12:44:33.865Z,-0.89
2018-12-14T12:47:04.224Z,-0.81
2018-12-14T12:49:35.276Z,-0.80
2018-12-14T12:52:05.537Z,-0.83
2018-12-14T12:54:35.634Z,-0.79
2018-12-14T12:57:05.767Z,-0.75
2018-12-14T12:59:42.301Z,-0.78
2018-12-14T13:02:12.709Z,-0.75
2018-12-14T13:07:19.771Z,-0.70
2018-12-14T13:09:49.794Z,-0.69
2018-12-14T13:12:19.980Z,-0.69
2018-12-14T13:14:50.156Z,-0.69
2018-12-14T13:17:20.383Z,-0.74
2018-12-14T13:19:50.472Z,-0.71
2018-12-14T13:22:20.721Z,-0.69
2018-12-14T13:24:50.945Z,-0.70
2018-12-14T13:27:20.911Z,-0.76
2018-12-14T13:29:50.946Z,-0.70
2018-12-14T13:32:21.264Z,-0.72
2018-12-14T13:34:51.314Z,-0.71
2018-12-14T13:37:21.651Z,-0.73
2018-12-14T13:39:51.800Z,-0.78
2018-12-14T13:42:21.805Z,-0.74
2018-12-14T13:44:58.303Z,-0.83
2018-12-14T13:47:28.477Z,-0.82
2018-12-14T13:49:58.467Z,-0.83
2018-12-14T13:52:29.241Z,-0.80
2018-12-14T13:54:59.470Z,-0.80
2018-12-14T13:57:29.481Z,-0.79
2018-12-14T13:59:59.483Z,-0.88
2018-12-14T14:02:29.812Z,-0.89
2018-12-14T14:04:59.703Z,-0.85
2018-12-14T14:07:29.868Z,-0.91
2018-12-14T14:10:00.405Z,-0.88
2018-12-14T14:12:31.606Z,-0.91
2018-12-14T14:15:01.891Z,-0.90
2018-12-14T14:17:31.842Z,-0.85
2018-12-14T14:20:02.317Z,-0.91
2018-12-14T14:22:32.768Z,-0.91
2018-12-14T14:25:03.160Z,-0.89
2018-12-14T14:27:34.386Z,-0.85
2018-12-14T14:30:06.743Z,-0.91
2018-12-14T14:32:37.887Z,-0.91
2018-12-14T14:35:09.446Z,-0.93
2018-12-14T14:37:40.065Z,-0.98
2018-12-14T14:40:11.575Z,-1.04
2018-12-14T14:42:42.277Z,-1.04
2018-12-14T14:45:15.439Z,-1.04
2018-12-14T14:47:46.530Z,-1.15
2018-12-14T14:50:18.464Z,-1.09
2018-12-14T14:52:49.968Z,-1.16
2018-12-14T14:55:20.952Z,-1.17
2018-12-14T14:57:53.402Z,-1.16
2018-12-14T15:00:24.132Z,-1.17
2018-12-14T15:02:55.579Z,-1.19
2018-12-14T15:08:02.230Z,-1.23
2018-12-14T15:10:32.807Z,-1.26
2018-12-14T15:13:04.226Z,-1.22
2018-12-14T15:15:35.312Z,-1.33
2018-12-14T15:18:05.608Z,-1.29
2018-12-14T15:23:13.847Z,-1.34
2018-12-14T15:25:44.012Z,-1.36
2018-12-14T15:28:15.429Z,-1.35
2018-12-14T15:30:45.995Z,-1.41
2018-12-14T15:33:19.527Z,-1.45
2018-12-14T15:36:03.114Z,-1.47
2018-12-14T15:38:35.946Z,-1.52
2018-12-14T15:43:47.301Z,-1.56
2018-12-14T15:46:19.047Z,-1.61
2018-12-14T15:48:50.201Z,-1.62
2018-12-14T15:51:21.641Z,-1.63
2018-12-14T15:53:53.073Z,-1.69
2018-12-14T15:56:23.930Z,-1.72
2018-12-14T15:58:55.813Z,-1.75
2018-12-14T16:04:02.857Z,-1.83
2018-12-14T16:06:33.850Z,-1.82
2018-12-14T16:09:05.750Z,-1.81
2018-12-14T16:11:38.382Z,-1.90
2018-12-14T16:14:09.281Z,-1.93
2018-12-14T16:16:42.173Z,-1.93
2018-12-14T16:19:13.598Z,-1.93
2018-12-14T16:24:25.208Z,-1.98
2018-12-14T16:26:56.427Z,-1.97
2018-12-14T16:29:27.731Z,-1.98
2018-12-14T16:31:57.938Z,-1.99
2018-12-14T16:34:28.702Z,-2.01
2018-12-14T16:36:59.413Z,-1.96
2018-12-14T16:39:30.274Z,-1.94
2018-12-14T16:42:00.848Z,-1.91
2018-12-14T16:44:31.887Z,-1.94
2018-12-14T16:47:02.207Z,-1.93
2018-12-14T16:49:34.650Z,-1.90
2018-12-14T16:52:06.698Z,-1.85
2018-12-14T16:54:38.333Z,-1.82
2018-12-14T16:57:09.029Z,-1.83
2018-12-14T16:59:40.712Z,-1.85
2018-12-14T17:02:10.738Z,-1.85
2018-12-14T17:04:42.465Z,-1.85
2018-12-14T17:07:14.575Z,-1.83
2018-12-14T17:09:46.264Z,-1.82
2018-12-14T17:12:18.415Z,-1.82
2018-12-14T17:14:48.571Z,-1.77
2018-12-14T17:17:19.385Z,-1.77
2018-12-14T17:19:50.973Z,-1.77
2018-12-14T17:22:21.096Z,-1.76
2018-12-14T17:24:51.644Z,-1.74
2018-12-14T17:27:21.818Z,-1.76
2018-12-14T17:29:51.893Z,-1.72
2018-12-14T17:32:22.218Z,-1.74
2018-12-14T17:34:52.407Z,-1.72
2018-12-14T17:37:22.330Z,-1.69
2018-12-14T17:42:28.774Z,-1.68
2018-12-14T17:44:58.754Z,-1.66
2018-12-14T17:47:28.760Z,-1.62
2018-12-14T17:49:58.925Z,-1.63
2018-12-14T17:52:29.144Z,-1.60
2018-12-14T17:54:59.576Z,-1.57
2018-12-14T17:57:30.276Z,-1.57
2018-12-14T18:00:00.561Z,-1.50
2018-12-14T18:02:30.608Z,-1.53
2018-12-14T18:05:00.586Z,-1.55
2018-12-14T18:07:30.861Z,-1.55
2018-12-14T18:10:00.845Z,-1.50
2018-12-14T18:15:07.877Z,-1.47
2018-12-14T18:17:37.834Z,-1.44
2018-12-14T18:20:08.366Z,-1.48
2018-12-14T18:22:38.629Z,-1.46
2018-12-14T18:25:09.075Z,-1.46
2018-12-14T18:27:39.701Z,-1.46
2018-12-14T18:32:46.777Z,-1.47
2018-12-14T18:35:16.715Z,-1.46
2018-12-14T18:37:46.944Z,-1.37
2018-12-14T18:42:54.839Z,-1.30
2018-12-14T18:45:25.035Z,-1.26
2018-12-14T18:47:55.142Z,-1.19
2018-12-14T18:50:25.237Z,-1.18
2018-12-14T18:52:56.696Z,-1.19
2018-12-14T18:55:28.050Z,-1.21
2018-12-14T18:57:59.834Z,-1.21
2018-12-14T19:00:30.193Z,-1.24
2018-12-14T19:03:01.611Z,-1.27
2018-12-14T19:05:33.571Z,-1.29
2018-12-14T19:08:05.520Z,-1.39
2018-12-14T19:10:35.773Z,-1.40
2018-12-14T19:13:06.265Z,-1.37
2018-12-14T19:15:36.622Z,-1.37
2018-12-14T19:18:07.059Z,-1.36
2018-12-14T19:20:37.175Z,-1.33
2018-12-14T19:23:07.752Z,-1.30
2018-12-14T19:25:37.781Z,-1.28
2018-12-14T19:28:08.430Z,-1.27
2018-12-14T19:30:38.960Z,-1.25
2018-12-14T19:33:10.205Z,-1.24
2018-12-14T19:35:40.167Z,-1.24
2018-12-14T19:38:10.488Z,-1.26
2018-12-14T19:40:45.072Z,-1.28
2018-12-14T19:43:15.314Z,-1.26
2018-12-14T19:45:45.692Z,-1.27
2018-12-14T19:48:16.493Z,-1.30
2018-12-14T19:50:47.124Z,-1.22
2018-12-14T19:53:17.486Z,-1.24
2018-12-14T19:55:47.801Z,-1.19
2018-12-14T19:58:18.226Z,-1.19
2018-12-14T20:00:48.381Z,-1.23
2018-12-14T20:03:18.727Z,-1.18
2018-12-14T20:05:48.884Z,-1.18
2018-12-14T20:08:19.512Z,-1.22
2018-12-14T20:10:49.605Z,-1.20
2018-12-14T20:13:19.960Z,-1.21
2018-12-14T20:15:50.191Z,-1.15
2018-12-14T20:18:20.477Z,-1.17
2018-12-14T20:20:51.005Z,-1.15
2018-12-14T20:23:21.414Z,-1.15
2018-12-14T20:28:29.188Z,-1.21
2018-12-14T20:30:59.114Z,-1.18
2018-12-14T20:33:29.244Z,-1.13
2018-12-14T20:35:59.266Z,-1.09
2018-12-14T20:38:29.467Z,-1.04
2018-12-14T20:40:59.971Z,-1.11
2018-12-14T20:46:06.819Z,-1.13
2018-12-14T20:48:37.873Z,-1.07
2018-12-14T20:51:08.278Z,-1.09
2018-12-14T20:53:38.711Z,-1.04
2018-12-14T20:56:08.809Z,-1.04
2018-12-14T20:58:39.879Z,-1.03
2018-12-14T21:01:09.895Z,-1.04
2018-12-14T21:03:40.066Z,-1.00
2018-12-14T21:06:11.745Z,-0.98
2018-12-14T21:08:41.930Z,-0.92
2018-12-14T21:11:12.343Z,-0.90
2018-12-14T21:13:42.629Z,-0.93
2018-12-14T21:16:13.607Z,-0.89
2018-12-14T21:18:44.171Z,-0.85
2018-12-14T21:21:14.558Z,-0.89
2018-12-14T21:23:44.750Z,-0.89
2018-12-14T21:26:15.243Z,-0.90
2018-12-14T21:28:45.438Z,-0.88
2018-12-14T21:31:15.961Z,-0.89
2018-12-14T21:33:46.475Z,-0.87
2018-12-14T21:36:17.991Z,-0.84
2018-12-14T21:38:49.086Z,-0.89
2018-12-14T21:41:20.192Z,-0.89
2018-12-14T21:43:50.813Z,-0.84
2018-12-14T21:46:21.260Z,-0.87
2018-12-14T21:48:51.584Z,-0.81
2018-12-14T21:51:22.200Z,-0.85
2018-12-14T21:53:52.648Z,-0.81
2018-12-14T21:56:23.100Z,-0.85
2018-12-14T21:58:54.062Z,-0.83
2018-12-14T22:04:07.380Z,-0.87
2018-12-14T22:06:38.305Z,-0.88
2018-12-14T22:09:09.790Z,-0.84
2018-12-14T22:11:40.527Z,-0.78
2018-12-14T22:14:11.409Z,-0.77
2018-12-14T22:16:41.681Z,-0.79
2018-12-14T22:19:12.079Z,-0.80
2018-12-14T22:21:46.374Z,-0.84
2018-12-14T22:24:17.043Z,-0.79
2018-12-14T22:26:47.590Z,-0.82
2018-12-14T22:29:18.288Z,-0.77
2018-12-14T22:31:49.927Z,-0.75
2018-12-14T22:34:20.087Z,-0.73
2018-12-14T22:36:50.772Z,-0.72
2018-12-14T22:41:58.102Z,-0.81
2018-12-14T22:44:28.698Z,-0.74
2018-12-14T22:46:58.902Z,-0.73
2018-12-14T22:49:34.284Z,-0.71
2018-12-14T22:54:41.159Z,-0.74
2018-12-14T22:57:11.394Z,-0.73
2018-12-14T22:59:42.779Z,-0.75
2018-12-14T23:02:13.195Z,-0.72
2018-12-14T23:04:43.703Z,-0.72
2018-12-14T23:07:13.846Z,-0.76
2018-12-14T23:09:44.002Z,-0.72
2018-12-14T23:12:14.101Z,-0.68
2018-12-14T23:14:44.819Z,-0.74
2018-12-14T23:17:15.183Z,-0.79
2018-12-14T23:19:45.755Z,-0.76
2018-12-14T23:22:16.334Z,-0.72
2018-12-14T23:24:46.606Z,-0.71
2018-12-14T23:27:17.550Z,-0.72
2018-12-14T23:29:48.101Z,-0.70
2018-12-14T23:32:18.365Z,-0.68
2018-12-14T23:34:49.030Z,-0.72
2018-12-14T23:37:19.479Z,-0.75
2018-12-14T23:39:49.672Z,-0.72
2018-12-14T23:44:56.980Z,-0.70
2018-12-14T23:47:27.146Z,-0.74
2018-12-14T23:49:58.012Z,-0.67
2018-12-14T23:52:28.645Z,-0.71
2018-12-14T23:54:59.253Z,-0.71
2018-12-14T23:57:29.361Z,-0.73
2018-12-14T23:59:59.666Z,-0.74
